createdAt,value
2018-09-01T00:00:45.999Z,13.60
2018-09-01T00:03:13.128Z,13.50
2018-09-01T00:05:40.246Z,13.40
2018-09-01T00:08:07.417Z,13.40
2018-09-01T00:10:34.562Z,13.30
2018-09-01T00:13:01.697Z,13.20
2018-09-01T00:15:29.726Z,13.20
2018-09-01T00:17:56.869Z,13.10
2018-09-01T00:20:24.084Z,13.00
2018-09-01T00:22:51.268Z,12.90
2018-09-01T00:25:18.458Z,12.80
2018-09-01T00:27:45.590Z,12.80
2018-09-01T00:30:12.678Z,12.70
2018-09-01T00:32:39.815Z,12.90
2018-09-01T00:35:06.946Z,13.00
2018-09-01T00:37:39.741Z,12.90
2018-09-01T00:40:06.883Z,12.80
2018-09-01T00:42:34.037Z,12.70
2018-09-01T00:45:01.182Z,13.00
2018-09-01T00:47:28.289Z,12.90
2018-09-01T00:49:55.524Z,13.00
2018-09-01T00:52:22.701Z,12.90
2018-09-01T00:54:49.932Z,13.10
2018-09-01T00:57:17.182Z,13.20
2018-09-01T00:59:44.330Z,13.30
2018-09-01T01:02:11.469Z,13.40
2018-09-01T01:04:38.612Z,13.50
2018-09-01T01:07:05.745Z,13.50
2018-09-01T01:09:32.882Z,13.60
2018-09-01T01:11:59.994Z,13.70
2018-09-01T01:14:27.123Z,13.60
2018-09-01T01:16:54.241Z,13.50
2018-09-01T01:19:21.628Z,13.50
2018-09-01T01:21:48.781Z,13.50
2018-09-01T01:24:15.935Z,13.50
2018-09-01T01:26:43.078Z,13.30
2018-09-01T01:29:10.210Z,13.30
2018-09-01T01:31:37.345Z,13.20
2018-09-01T01:34:04.523Z,13.30
2018-09-01T01:36:31.646Z,13.20
2018-09-01T01:38:58.766Z,13.20
2018-09-01T01:41:25.943Z,12.90
2018-09-01T01:43:53.155Z,13.10
2018-09-01T01:46:20.412Z,12.90
2018-09-01T01:48:47.626Z,12.90
2018-09-01T01:51:14.765Z,12.90
2018-09-01T01:53:41.886Z,12.80
2018-09-01T01:56:09.238Z,12.60
2018-09-01T01:58:36.364Z,12.40
2018-09-01T02:01:03.508Z,12.30
2018-09-01T02:03:30.618Z,12.20
2018-09-01T02:05:57.755Z,12.10
2018-09-01T02:08:24.883Z,12.10
2018-09-01T02:10:52.122Z,12.00
2018-09-01T02:13:19.319Z,12.00
2018-09-01T02:15:46.487Z,12.00
2018-09-01T02:18:13.629Z,11.90
2018-09-01T02:20:40.751Z,11.90
2018-09-01T02:23:07.903Z,12.00
2018-09-01T02:25:35.056Z,12.10
2018-09-01T02:28:02.221Z,12.10
2018-09-01T02:30:29.343Z,12.10
2018-09-01T02:32:56.471Z,12.00
2018-09-01T02:35:23.632Z,12.00
2018-09-01T02:37:50.833Z,12.00
2018-09-01T02:40:18.087Z,12.00
2018-09-01T02:42:45.239Z,11.90
2018-09-01T02:45:12.398Z,11.80
2018-09-01T02:47:39.566Z,11.70
2018-09-01T02:50:06.726Z,11.70
2018-09-01T02:52:33.867Z,11.70
2018-09-01T02:55:01.024Z,11.80
2018-09-01T02:57:28.183Z,12.00
2018-09-01T02:59:55.302Z,12.00
2018-09-01T03:02:28.228Z,12.10
2018-09-01T03:04:55.354Z,12.10
2018-09-01T03:07:22.642Z,12.10
2018-09-01T03:09:49.809Z,12.10
2018-09-01T03:12:16.936Z,12.20
2018-09-01T03:14:44.108Z,12.10
2018-09-01T03:17:11.242Z,12.00
2018-09-01T03:19:38.363Z,12.00
2018-09-01T03:22:05.579Z,11.80
2018-09-01T03:24:32.730Z,11.80
2018-09-01T03:26:59.839Z,11.90
2018-09-01T03:29:26.971Z,11.90
2018-09-01T03:31:54.143Z,11.90
2018-09-01T03:34:21.318Z,11.80
2018-09-01T03:36:48.570Z,12.00
2018-09-01T03:39:15.714Z,12.00
2018-09-01T03:41:42.890Z,12.00
2018-09-01T03:44:10.067Z,11.90
2018-09-01T03:46:37.225Z,11.80
2018-09-01T03:49:06.057Z,11.90
2018-09-01T03:51:33.190Z,12.00
2018-09-01T03:54:00.343Z,12.10
2018-09-01T03:56:27.517Z,12.20
2018-09-01T03:58:54.713Z,12.30
2018-09-01T04:01:21.957Z,12.40
2018-09-01T04:03:49.204Z,12.40
2018-09-01T04:06:16.383Z,12.40
2018-09-01T04:08:43.661Z,12.30
2018-09-01T04:11:10.778Z,12.30
2018-09-01T04:13:37.896Z,12.20
2018-09-01T04:16:05.067Z,12.20
2018-09-01T04:18:32.184Z,12.10
2018-09-01T04:20:59.320Z,12.00
2018-09-01T04:23:26.458Z,11.90
2018-09-01T04:25:53.790Z,11.80
2018-09-01T04:28:21.155Z,11.70
2018-09-01T04:30:48.355Z,11.60
2018-09-01T04:33:15.527Z,11.60
2018-09-01T04:35:42.646Z,11.60
2018-09-01T04:38:09.770Z,11.50
2018-09-01T04:40:36.909Z,11.50
2018-09-01T04:43:04.056Z,11.50
2018-09-01T04:45:31.209Z,11.50
2018-09-01T04:47:58.350Z,11.50
2018-09-01T04:50:25.458Z,11.50
2018-09-01T04:52:52.639Z,11.50
2018-09-01T04:55:19.813Z,11.50
2018-09-01T04:57:47.037Z,11.60
2018-09-01T05:00:20.770Z,11.60
2018-09-01T05:02:48.724Z,11.60
2018-09-01T05:05:16.081Z,11.50
2018-09-01T05:07:43.230Z,11.50
2018-09-01T05:10:10.495Z,11.50
2018-09-01T05:12:37.619Z,11.60
2018-09-01T05:15:04.783Z,11.80
2018-09-01T05:17:31.919Z,11.80
2018-09-01T05:19:59.075Z,11.90
2018-09-01T05:22:26.194Z,12.00
2018-09-01T05:24:53.389Z,12.30
2018-09-01T05:27:20.562Z,12.40
2018-09-01T05:29:48.681Z,12.50
2018-09-01T05:32:16.023Z,12.80
2018-09-01T05:34:43.206Z,12.80
2018-09-01T05:37:10.374Z,12.90
2018-09-01T05:39:37.496Z,13.10
2018-09-01T05:42:04.650Z,13.30
2018-09-01T05:44:31.781Z,13.60
2018-09-01T05:46:58.922Z,14.00
2018-09-01T05:49:26.026Z,15.90
2018-09-01T05:51:53.225Z,17.30
2018-09-01T05:54:20.422Z,18.50
2018-09-01T05:56:47.662Z,19.70
2018-09-01T05:59:14.770Z,20.80
2018-09-01T06:01:41.921Z,21.30
2018-09-01T06:04:09.030Z,22.10
2018-09-01T06:06:36.178Z,22.70
2018-09-01T06:09:04.678Z,23.80
2018-09-01T06:11:31.850Z,24.00
2018-09-01T06:13:58.990Z,24.20
2018-09-01T06:16:26.177Z,24.20
2018-09-01T06:18:53.388Z,24.80
2018-09-01T06:21:20.930Z,26.10
2018-09-01T06:23:48.499Z,26.00
2018-09-01T06:26:15.634Z,26.40
2018-09-01T06:28:45.389Z,26.80
2018-09-01T06:31:12.547Z,27.00
2018-09-01T06:33:39.657Z,27.40
2018-09-01T06:36:06.774Z,28.20
2018-09-01T06:38:33.899Z,28.00
2018-09-01T06:41:01.010Z,29.40
2018-09-01T06:43:28.166Z,28.90
2018-09-01T06:45:55.265Z,29.60
2018-09-01T06:48:22.386Z,30.60
2018-09-01T06:50:49.538Z,31.10
2018-09-01T06:53:16.687Z,31.80
2018-09-01T06:55:43.802Z,32.20
2018-09-01T06:58:11.134Z,32.40
2018-09-01T07:00:38.258Z,32.00
2018-09-01T07:03:05.421Z,31.50
2018-09-01T07:05:33.490Z,32.20
2018-09-01T07:08:00.694Z,31.40
2018-09-01T07:10:27.840Z,32.10
2018-09-01T07:12:54.971Z,32.60
2018-09-01T07:15:22.161Z,31.30
2018-09-01T07:17:49.328Z,32.10
2018-09-01T07:20:16.493Z,32.20
2018-09-01T07:22:43.683Z,31.40
2018-09-01T07:25:10.866Z,30.10
2018-09-01T07:27:38.034Z,30.40
2018-09-01T07:30:06.141Z,29.60
2018-09-01T07:32:33.257Z,30.10
2018-09-01T07:35:00.447Z,30.40
2018-09-01T07:37:27.610Z,30.30
2018-09-01T07:39:54.821Z,30.10
2018-09-01T07:42:21.995Z,30.00
2018-09-01T07:44:49.174Z,29.90
2018-09-01T07:47:16.485Z,30.90
2018-09-01T07:49:43.816Z,30.90
2018-09-01T07:52:10.998Z,30.40
2018-09-01T07:54:38.411Z,30.20
2018-09-01T07:57:05.571Z,31.10
2018-09-01T07:59:32.701Z,30.40
2018-09-01T08:01:59.870Z,29.70
2018-09-01T08:04:27.017Z,30.00
2018-09-01T08:06:54.167Z,30.20
2018-09-01T08:09:21.307Z,32.20
2018-09-01T08:11:48.475Z,31.90
2018-09-01T08:14:15.688Z,29.90
2018-09-01T08:16:42.794Z,29.60
2018-09-01T08:19:09.950Z,29.30
2018-09-01T08:21:37.119Z,28.80
2018-09-01T08:24:04.282Z,28.60
2018-09-01T08:26:31.434Z,29.10
2018-09-01T08:28:58.698Z,28.70
2018-09-01T08:31:25.906Z,28.40
2018-09-01T08:33:53.066Z,27.60
2018-09-01T08:36:20.255Z,26.70
2018-09-01T08:38:47.442Z,27.20
2018-09-01T08:41:14.554Z,26.70
2018-09-01T08:43:41.760Z,26.70
2018-09-01T08:46:08.895Z,27.10
2018-09-01T08:48:36.298Z,27.30
2018-09-01T08:51:03.710Z,27.00
2018-09-01T08:53:30.866Z,26.10
2018-09-01T08:55:58.018Z,25.70
2018-09-01T08:58:25.173Z,25.70
2018-09-01T09:00:52.321Z,26.30
2018-09-01T09:03:19.485Z,26.10
2018-09-01T09:05:46.769Z,25.60
2018-09-01T09:08:13.911Z,24.40
2018-09-01T09:10:41.089Z,23.20
2018-09-01T09:13:08.228Z,22.90
2018-09-01T09:15:35.381Z,22.70
2018-09-01T09:18:02.522Z,22.20
2018-09-01T09:20:29.667Z,21.50
2018-09-01T09:22:56.787Z,20.90
2018-09-01T09:25:23.910Z,20.70
2018-09-01T09:27:51.057Z,20.40
2018-09-01T09:30:18.226Z,20.20
2018-09-01T09:32:45.375Z,20.20
2018-09-01T09:35:12.544Z,20.00
2018-09-01T09:37:39.686Z,20.10
2018-09-01T09:40:06.872Z,20.20
2018-09-01T09:42:34.051Z,20.50
2018-09-01T09:45:01.186Z,20.90
2018-09-01T09:47:28.330Z,20.80
2018-09-01T09:49:55.530Z,20.60
2018-09-01T09:52:22.678Z,20.40
2018-09-01T09:54:49.903Z,20.30
2018-09-01T09:57:17.141Z,20.50
2018-09-01T09:59:44.286Z,20.70
2018-09-01T10:02:11.460Z,20.90
2018-09-01T10:04:38.624Z,20.70
2018-09-01T10:07:05.887Z,21.00
2018-09-01T10:09:33.023Z,20.90
2018-09-01T10:12:00.149Z,21.00
2018-09-01T10:14:27.260Z,21.10
2018-09-01T10:16:54.508Z,21.40
2018-09-01T10:19:21.681Z,21.70
2018-09-01T10:21:49.062Z,21.90
2018-09-01T10:24:16.241Z,21.90
2018-09-01T10:26:43.396Z,21.90
2018-09-01T10:29:10.539Z,21.50
2018-09-01T10:31:37.666Z,21.40
2018-09-01T10:34:04.837Z,21.50
2018-09-01T10:36:31.980Z,21.10
2018-09-01T10:38:59.390Z,20.90
2018-09-01T10:41:26.650Z,20.80
2018-09-01T10:44:03.861Z,21.00
2018-09-01T10:46:31.187Z,21.10
2018-09-01T10:48:58.348Z,21.30
2018-09-01T10:51:25.469Z,21.20
2018-09-01T10:53:52.650Z,21.30
2018-09-01T10:56:19.928Z,21.40
2018-09-01T10:58:47.288Z,21.30
2018-09-01T11:01:14.369Z,21.00
2018-09-01T11:03:41.514Z,21.00
2018-09-01T11:06:08.693Z,21.00
2018-09-01T11:08:35.881Z,21.30
2018-09-01T11:11:03.002Z,21.40
2018-09-01T11:13:30.141Z,21.10
2018-09-01T11:15:57.331Z,20.80
2018-09-01T11:18:24.663Z,20.60
2018-09-01T11:20:52.101Z,20.70
2018-09-01T11:23:19.313Z,20.80
2018-09-01T11:25:46.525Z,21.20
2018-09-01T11:28:13.790Z,21.50
2018-09-01T11:30:41.119Z,21.40
2018-09-01T11:33:08.279Z,21.30
2018-09-01T11:35:35.422Z,20.80
2018-09-01T11:38:02.598Z,20.40
2018-09-01T11:40:30.034Z,20.40
2018-09-01T11:42:57.240Z,20.60
2018-09-01T11:45:24.309Z,21.00
2018-09-01T11:47:51.548Z,21.10
2018-09-01T11:50:18.713Z,21.50
2018-09-01T11:52:45.870Z,21.50
2018-09-01T11:55:12.990Z,22.10
2018-09-01T11:57:40.235Z,22.40
2018-09-01T12:00:07.491Z,22.20
2018-09-01T12:02:34.720Z,21.90
2018-09-01T12:05:01.971Z,21.80
2018-09-01T12:07:29.447Z,21.70
2018-09-01T12:09:56.628Z,21.60
2018-09-01T12:12:23.920Z,21.30
2018-09-01T12:14:51.926Z,21.30
2018-09-01T12:17:19.727Z,21.30
2018-09-01T12:19:47.486Z,21.40
2018-09-01T12:22:14.747Z,21.60
2018-09-01T12:24:42.073Z,21.70
2018-09-01T12:27:09.526Z,22.20
2018-09-01T12:29:36.791Z,22.80
2018-09-01T12:32:03.959Z,23.20
2018-09-01T12:34:31.368Z,23.20
2018-09-01T12:36:58.573Z,22.60
2018-09-01T12:39:25.808Z,21.90
2018-09-01T12:41:53.090Z,21.60
2018-09-01T12:44:20.573Z,21.20
2018-09-01T12:46:47.876Z,21.20
2018-09-01T12:49:15.209Z,21.40
2018-09-01T12:51:42.598Z,21.90
2018-09-01T12:54:09.905Z,22.60
2018-09-01T12:56:37.320Z,22.60
2018-09-01T12:59:04.696Z,22.40
2018-09-01T13:01:32.002Z,21.80
2018-09-01T13:03:59.307Z,21.40
2018-09-01T13:06:26.626Z,21.20
2018-09-01T13:08:53.887Z,21.00
2018-09-01T13:11:21.412Z,21.40
2018-09-01T13:13:48.984Z,21.80
2018-09-01T13:16:16.222Z,22.00
2018-09-01T13:18:43.492Z,22.20
2018-09-01T13:21:10.862Z,22.10
2018-09-01T13:23:38.183Z,21.90
2018-09-01T13:26:05.459Z,21.80
2018-09-01T13:28:32.867Z,21.60
2018-09-01T13:31:00.374Z,21.30
2018-09-01T13:33:28.753Z,21.00
2018-09-01T13:35:56.910Z,21.10
2018-09-01T13:38:26.355Z,21.40
2018-09-01T13:40:54.408Z,21.70
2018-09-01T13:43:23.254Z,21.80
2018-09-01T13:45:52.488Z,21.90
2018-09-01T13:48:20.660Z,21.90
2018-09-01T13:50:48.739Z,21.80
2018-09-01T13:53:16.059Z,21.50
2018-09-01T13:55:43.214Z,21.40
2018-09-01T13:58:10.395Z,21.30
2018-09-01T14:00:37.533Z,21.30
2018-09-01T14:03:05.268Z,21.40
2018-09-01T14:05:32.922Z,21.50
2018-09-01T14:08:00.228Z,21.60
2018-09-01T14:10:28.662Z,21.70
2018-09-01T14:12:56.959Z,21.60
2018-09-01T14:15:24.423Z,21.60
2018-09-01T14:17:52.202Z,21.60
2018-09-01T14:20:19.373Z,21.50
2018-09-01T14:22:46.644Z,21.40
2018-09-01T14:25:13.796Z,21.10
2018-09-01T14:27:40.943Z,21.10
2018-09-01T14:30:08.304Z,20.90
2018-09-01T14:32:35.506Z,21.10
2018-09-01T14:35:02.670Z,21.10
2018-09-01T14:37:29.854Z,21.20
2018-09-01T14:39:57.005Z,21.20
2018-09-01T14:42:24.195Z,21.30
2018-09-01T14:44:51.428Z,21.50
2018-09-01T14:47:18.707Z,21.60
2018-09-01T14:49:46.011Z,21.70
2018-09-01T14:52:13.284Z,21.70
2018-09-01T14:54:40.552Z,21.60
2018-09-01T14:57:07.693Z,21.50
2018-09-01T14:59:34.863Z,21.30
2018-09-01T15:02:02.048Z,21.30
2018-09-01T15:04:29.188Z,21.30
2018-09-01T15:06:56.342Z,21.30
2018-09-01T15:09:23.487Z,21.40
2018-09-01T15:11:50.728Z,21.40
2018-09-01T15:14:17.943Z,21.50
2018-09-01T15:16:45.183Z,21.60
2018-09-01T15:19:12.318Z,21.80
2018-09-01T15:21:39.496Z,21.90
2018-09-01T15:24:07.041Z,21.80
2018-09-01T15:26:34.287Z,21.50
2018-09-01T15:29:01.510Z,21.40
2018-09-01T15:31:28.662Z,21.30
2018-09-01T15:33:55.822Z,21.20
2018-09-01T15:36:22.998Z,21.10
2018-09-01T15:38:50.256Z,21.00
2018-09-01T15:41:17.418Z,21.00
2018-09-01T15:43:44.594Z,21.00
2018-09-01T15:46:11.790Z,21.10
2018-09-01T15:48:38.951Z,21.00
2018-09-01T15:51:06.158Z,21.00
2018-09-01T15:53:33.348Z,21.00
2018-09-01T15:56:00.540Z,21.00
2018-09-01T15:58:27.671Z,21.00
2018-09-01T16:00:54.816Z,21.00
2018-09-01T16:03:22.045Z,21.10
2018-09-01T16:05:49.367Z,21.00
2018-09-01T16:08:16.608Z,20.90
2018-09-01T16:10:43.734Z,20.80
2018-09-01T16:13:10.875Z,20.80
2018-09-01T16:15:38.021Z,20.80
2018-09-01T16:18:05.200Z,20.90
2018-09-01T16:20:32.306Z,20.90
2018-09-01T16:22:59.446Z,20.90
2018-09-01T16:25:26.594Z,20.80
2018-09-01T16:27:53.974Z,20.80
2018-09-01T16:30:21.336Z,20.70
2018-09-01T16:32:48.551Z,20.80
2018-09-01T16:35:15.678Z,20.80
2018-09-01T16:37:42.853Z,20.70
2018-09-01T16:40:10.031Z,20.70
2018-09-01T16:42:37.166Z,20.60
2018-09-01T16:45:04.537Z,20.60
2018-09-01T16:47:31.671Z,20.50
2018-09-01T16:49:58.844Z,20.50
2018-09-01T16:52:26.019Z,20.40
2018-09-01T16:54:53.194Z,20.30
2018-09-01T16:57:20.420Z,20.30
2018-09-01T16:59:47.610Z,20.20
2018-09-01T17:02:14.725Z,20.20
2018-09-01T17:04:41.874Z,20.20
2018-09-01T17:07:09.033Z,20.10
2018-09-01T17:09:36.206Z,20.10
2018-09-01T17:12:03.394Z,20.00
2018-09-01T17:14:30.564Z,20.00
2018-09-01T17:16:57.695Z,19.90
2018-09-01T17:19:24.835Z,19.70
2018-09-01T17:21:52.036Z,19.60
2018-09-01T17:24:19.243Z,19.60
2018-09-01T17:26:46.417Z,19.50
2018-09-01T17:29:13.538Z,19.40
2018-09-01T17:31:40.673Z,19.30
2018-09-01T17:34:07.850Z,19.30
2018-09-01T17:36:34.993Z,19.20
2018-09-01T17:39:02.259Z,19.20
2018-09-01T17:41:29.384Z,19.10
2018-09-01T17:43:56.598Z,19.00
2018-09-01T17:46:23.824Z,18.80
2018-09-01T17:48:51.247Z,18.70
2018-09-01T17:51:18.608Z,18.70
2018-09-01T17:53:45.748Z,18.60
2018-09-01T17:56:12.944Z,18.60
2018-09-01T17:58:40.110Z,18.50
2018-09-01T18:01:07.261Z,18.30
2018-09-01T18:03:34.560Z,18.30
2018-09-01T18:06:01.686Z,18.30
2018-09-01T18:08:28.797Z,18.10
2018-09-01T18:10:55.899Z,18.10
2018-09-01T18:13:23.089Z,18.00
2018-09-01T18:15:50.274Z,17.90
2018-09-01T18:18:17.483Z,17.90
2018-09-01T18:20:44.603Z,17.80
2018-09-01T18:23:11.723Z,17.70
2018-09-01T18:25:38.855Z,17.60
2018-09-01T18:28:05.994Z,17.50
2018-09-01T18:30:33.119Z,17.40
2018-09-01T18:33:00.262Z,17.40
2018-09-01T18:35:27.475Z,17.30
2018-09-01T18:37:54.598Z,17.20
2018-09-01T18:40:21.787Z,17.20
2018-09-01T18:42:48.971Z,17.20
2018-09-01T18:45:16.090Z,17.20
2018-09-01T18:47:43.231Z,17.10
2018-09-01T18:50:10.383Z,17.10
2018-09-01T18:52:37.577Z,17.20
2018-09-01T18:55:04.979Z,17.10
2018-09-01T18:57:32.186Z,17.10
2018-09-01T18:59:59.394Z,17.10
2018-09-01T19:02:26.564Z,17.10
2018-09-01T19:04:53.772Z,17.10
2018-09-01T19:07:20.966Z,17.10
2018-09-01T19:09:48.205Z,17.10
2018-09-01T19:12:15.287Z,17.10
2018-09-01T19:14:42.424Z,17.00
2018-09-01T19:17:09.576Z,17.00
2018-09-01T19:19:36.711Z,17.00
2018-09-01T19:22:03.859Z,17.00
2018-09-01T19:24:31.052Z,16.90
2018-09-01T19:26:58.218Z,16.90
2018-09-01T19:29:25.540Z,16.90
2018-09-01T19:31:52.772Z,17.00
2018-09-01T19:34:20.017Z,16.90
2018-09-01T19:36:47.178Z,16.90
2018-09-01T19:39:14.303Z,16.90
2018-09-01T19:41:42.268Z,16.90
2018-09-01T19:44:09.410Z,16.90
2018-09-01T19:46:36.687Z,16.90
2018-09-01T19:49:04.051Z,16.80
2018-09-01T19:51:31.202Z,16.90
2018-09-01T19:53:58.339Z,16.80
2018-09-01T19:56:25.563Z,16.90
2018-09-01T19:58:52.789Z,16.90
2018-09-01T20:01:20.087Z,16.90
2018-09-01T20:03:47.336Z,16.90
2018-09-01T20:06:14.462Z,16.80
2018-09-01T20:08:41.763Z,16.80
2018-09-01T20:11:08.895Z,16.80
2018-09-01T20:13:36.051Z,16.70
2018-09-01T20:16:03.277Z,16.80
2018-09-01T20:18:30.430Z,16.70
2018-09-01T20:20:57.590Z,16.80
2018-09-01T20:23:24.856Z,16.70
2018-09-01T20:25:52.111Z,16.70
2018-09-01T20:28:19.370Z,16.60
2018-09-01T20:30:46.657Z,16.70
2018-09-01T20:33:13.778Z,16.70
2018-09-01T20:35:58.830Z,16.70
2018-09-01T20:38:27.707Z,16.70
2018-09-01T20:40:54.938Z,16.70
2018-09-01T20:43:22.464Z,16.80
2018-09-01T20:45:49.705Z,16.70
2018-09-01T20:48:17.096Z,16.50
2018-09-01T20:50:44.236Z,16.60
2018-09-01T20:53:11.397Z,16.70
2018-09-01T20:55:38.558Z,16.50
2018-09-01T20:58:05.723Z,16.70
2018-09-01T21:00:32.851Z,16.70
2018-09-01T21:02:59.970Z,16.70
2018-09-01T21:05:27.088Z,16.60
2018-09-01T21:07:54.418Z,16.60
2018-09-01T21:10:21.826Z,16.60
2018-09-01T21:12:48.998Z,16.70
2018-09-01T21:15:16.131Z,16.70
2018-09-01T21:17:43.267Z,16.60
2018-09-01T21:20:10.415Z,16.60
2018-09-01T21:22:37.549Z,16.60
2018-09-01T21:25:04.938Z,16.60
2018-09-01T21:27:32.084Z,16.60
2018-09-01T21:29:59.266Z,16.60
2018-09-01T21:32:26.438Z,16.60
2018-09-01T21:34:53.639Z,16.60
2018-09-01T21:37:20.903Z,16.60
2018-09-01T21:39:48.224Z,16.50
2018-09-01T21:42:15.418Z,16.50
2018-09-01T21:44:42.540Z,16.50
2018-09-01T21:47:09.835Z,16.60
2018-09-01T21:49:37.039Z,16.60
2018-09-01T21:52:04.270Z,16.60
2018-09-01T21:54:31.394Z,16.50
2018-09-01T21:56:58.556Z,16.50
2018-09-01T21:59:25.704Z,16.50
2018-09-01T22:01:58.658Z,16.40
2018-09-01T22:04:25.947Z,16.40
2018-09-01T22:06:53.181Z,16.50
2018-09-01T22:09:20.373Z,16.30
2018-09-01T22:11:47.763Z,16.30
2018-09-01T22:14:14.927Z,16.30
2018-09-01T22:16:42.062Z,16.40
2018-09-01T22:19:09.258Z,16.40
2018-09-01T22:21:36.392Z,16.40
2018-09-01T22:24:03.526Z,16.30
2018-09-01T22:26:30.666Z,16.30
2018-09-01T22:28:57.807Z,16.40
2018-09-01T22:31:25.097Z,16.30
2018-09-01T22:33:52.239Z,16.40
2018-09-01T22:36:19.400Z,16.30
2018-09-01T22:38:46.563Z,16.30
2018-09-01T22:41:13.765Z,16.30
2018-09-01T22:43:40.911Z,16.30
2018-09-01T22:46:08.062Z,16.30
2018-09-01T22:48:35.226Z,16.40
2018-09-01T22:51:02.380Z,16.30
2018-09-01T22:53:29.574Z,16.30
2018-09-01T22:55:56.746Z,16.40
2018-09-01T22:58:23.928Z,16.40
2018-09-01T23:00:51.190Z,16.40
2018-09-01T23:03:20.077Z,16.30
2018-09-01T23:05:47.272Z,16.20
2018-09-01T23:08:14.468Z,16.10
2018-09-01T23:10:41.646Z,16.10
2018-09-01T23:13:08.812Z,16.10
2018-09-01T23:15:35.961Z,16.10
2018-09-01T23:18:03.134Z,16.10
2018-09-01T23:20:30.298Z,16.10
2018-09-01T23:22:57.492Z,16.10
2018-09-01T23:25:24.696Z,16.00
2018-09-01T23:27:51.979Z,16.10
2018-09-01T23:30:19.198Z,16.00
2018-09-01T23:32:46.312Z,16.10
2018-09-01T23:35:13.442Z,16.10
2018-09-01T23:37:40.623Z,15.90
2018-09-01T23:40:07.825Z,15.90
2018-09-01T23:42:34.963Z,15.90
2018-09-01T23:45:02.104Z,15.90
2018-09-01T23:47:29.247Z,15.90
2018-09-01T23:49:56.378Z,15.80
2018-09-01T23:52:23.572Z,15.90
2018-09-01T23:54:50.837Z,15.90
2018-09-01T23:57:18.037Z,15.90
2018-09-01T23:59:45.274Z,15.90
